sensor_id;sensor_type;location;lat;lon;timestamp;P1;durP1;ratioP1;P2;durP2;ratioP2
15126;SDS011;7664;52.008;4.748;2023-07-13T00:01:31;6.97;;;1.75;;
15126;SDS011;7664;52.008;4.748;2023-07-13T00:03:59;8.32;;;1.70;;
15126;SDS011;7664;52.008;4.748;2023-07-13T00:06:28;6.65;;;1.88;;
15126;SDS011;7664;52.008;4.748;2023-07-13T00:08:59;6.95;;;1.95;;
15126;SDS011;7664;52.008;4.748;2023-07-13T00:11:28;7.47;;;1.90;;
15126;SDS011;7664;52.008;4.748;2023-07-13T00:13:57;6.70;;;2.28;;
15126;SDS011;7664;52.008;4.748;2023-07-13T00:16:26;6.07;;;2.08;;
15126;SDS011;7664;52.008;4.748;2023-07-13T00:18:55;9.45;;;1.95;;
15126;SDS011;7664;52.008;4.748;2023-07-13T00:21:23;6.55;;;2.03;;
15126;SDS011;7664;52.008;4.748;2023-07-13T00:23:52;7.03;;;2.42;;
15126;SDS011;7664;52.008;4.748;2023-07-13T00:26:20;5.10;;;2.17;;
15126;SDS011;7664;52.008;4.748;2023-07-13T00:28:49;10.35;;;2.95;;
15126;SDS011;7664;52.008;4.748;2023-07-13T00:31:19;8.18;;;2.10;;
15126;SDS011;7664;52.008;4.748;2023-07-13T00:33:48;9.43;;;2.58;;
15126;SDS011;7664;52.008;4.748;2023-07-13T00:36:16;5.82;;;1.60;;
15126;SDS011;7664;52.008;4.748;2023-07-13T00:38:45;7.68;;;2.00;;
15126;SDS011;7664;52.008;4.748;2023-07-13T00:41:13;8.95;;;2.38;;
15126;SDS011;7664;52.008;4.748;2023-07-13T00:43:42;4.55;;;2.00;;
15126;SDS011;7664;52.008;4.748;2023-07-13T00:46:19;5.65;;;2.03;;
15126;SDS011;7664;52.008;4.748;2023-07-13T00:48:48;6.53;;;1.85;;
15126;SDS011;7664;52.008;4.748;2023-07-13T00:51:18;10.60;;;2.05;;
15126;SDS011;7664;52.008;4.748;2023-07-13T00:53:47;7.32;;;2.42;;
15126;SDS011;7664;52.008;4.748;2023-07-13T00:56:16;7.88;;;2.10;;
15126;SDS011;7664;52.008;4.748;2023-07-13T00:58:44;6.15;;;1.75;;
15126;SDS011;7664;52.008;4.748;2023-07-13T01:01:13;8.00;;;2.08;;
15126;SDS011;7664;52.008;4.748;2023-07-13T01:03:43;7.35;;;1.73;;
15126;SDS011;7664;52.008;4.748;2023-07-13T01:06:13;6.28;;;2.40;;
15126;SDS011;7664;52.008;4.748;2023-07-13T01:08:44;5.80;;;2.05;;
15126;SDS011;7664;52.008;4.748;2023-07-13T01:11:13;4.95;;;1.75;;
15126;SDS011;7664;52.008;4.748;2023-07-13T01:13:46;7.82;;;1.88;;
15126;SDS011;7664;52.008;4.748;2023-07-13T01:16:17;5.35;;;1.90;;
15126;SDS011;7664;52.008;4.748;2023-07-13T01:18:48;6.75;;;2.58;;
15126;SDS011;7664;52.008;4.748;2023-07-13T01:21:19;5.15;;;1.80;;
15126;SDS011;7664;52.008;4.748;2023-07-13T01:23:47;6.65;;;1.90;;
15126;SDS011;7664;52.008;4.748;2023-07-13T01:26:16;6.95;;;1.95;;
15126;SDS011;7664;52.008;4.748;2023-07-13T01:28:44;5.45;;;2.13;;
15126;SDS011;7664;52.008;4.748;2023-07-13T01:31:13;7.45;;;2.35;;
15126;SDS011;7664;52.008;4.748;2023-07-13T01:33:41;7.22;;;1.88;;
15126;SDS011;7664;52.008;4.748;2023-07-13T01:36:10;6.28;;;2.00;;
15126;SDS011;7664;52.008;4.748;2023-07-13T01:38:41;6.93;;;2.15;;
15126;SDS011;7664;52.008;4.748;2023-07-13T01:41:10;6.20;;;2.20;;
15126;SDS011;7664;52.008;4.748;2023-07-13T01:43:39;7.03;;;2.03;;
15126;SDS011;7664;52.008;4.748;2023-07-13T01:46:08;9.25;;;2.10;;
15126;SDS011;7664;52.008;4.748;2023-07-13T01:48:49;9.20;;;1.92;;
15126;SDS011;7664;52.008;4.748;2023-07-13T01:51:18;9.02;;;2.17;;
15126;SDS011;7664;52.008;4.748;2023-07-13T01:53:49;9.15;;;1.95;;
15126;SDS011;7664;52.008;4.748;2023-07-13T01:56:17;7.40;;;1.77;;
15126;SDS011;7664;52.008;4.748;2023-07-13T01:58:46;8.82;;;2.15;;
15126;SDS011;7664;52.008;4.748;2023-07-13T02:01:15;6.90;;;1.73;;
15126;SDS011;7664;52.008;4.748;2023-07-13T02:03:44;3.90;;;1.63;;
15126;SDS011;7664;52.008;4.748;2023-07-13T02:06:13;7.43;;;1.95;;
15126;SDS011;7664;52.008;4.748;2023-07-13T02:08:41;7.78;;;1.75;;
15126;SDS011;7664;52.008;4.748;2023-07-13T02:11:11;4.45;;;1.63;;
15126;SDS011;7664;52.008;4.748;2023-07-13T02:13:40;6.28;;;1.70;;
15126;SDS011;7664;52.008;4.748;2023-07-13T02:16:08;9.80;;;2.35;;
15126;SDS011;7664;52.008;4.748;2023-07-13T02:18:39;6.72;;;2.30;;
15126;SDS011;7664;52.008;4.748;2023-07-13T02:21:07;6.57;;;1.80;;
15126;SDS011;7664;52.008;4.748;2023-07-13T02:23:39;5.07;;;1.50;;
15126;SDS011;7664;52.008;4.748;2023-07-13T02:26:07;8.52;;;1.58;;
15126;SDS011;7664;52.008;4.748;2023-07-13T02:28:38;3.17;;;1.50;;
15126;SDS011;7664;52.008;4.748;2023-07-13T02:31:07;6.63;;;2.05;;
15126;SDS011;7664;52.008;4.748;2023-07-13T02:33:39;8.45;;;1.80;;
15126;SDS011;7664;52.008;4.748;2023-07-13T02:36:07;6.78;;;2.17;;
15126;SDS011;7664;52.008;4.748;2023-07-13T02:38:36;6.45;;;1.90;;
15126;SDS011;7664;52.008;4.748;2023-07-13T02:41:05;5.07;;;1.58;;
15126;SDS011;7664;52.008;4.748;2023-07-13T02:43:35;5.72;;;1.90;;
15126;SDS011;7664;52.008;4.748;2023-07-13T02:46:08;4.20;;;1.40;;
15126;SDS011;7664;52.008;4.748;2023-07-13T02:48:37;5.80;;;1.38;;
15126;SDS011;7664;52.008;4.748;2023-07-13T02:51:06;6.68;;;1.38;;
15126;SDS011;7664;52.008;4.748;2023-07-13T02:53:35;4.32;;;1.25;;
15126;SDS011;7664;52.008;4.748;2023-07-13T02:56:05;6.13;;;1.40;;
15126;SDS011;7664;52.008;4.748;2023-07-13T02:58:34;8.02;;;1.63;;
15126;SDS011;7664;52.008;4.748;2023-07-13T03:01:07;3.65;;;1.50;;
15126;SDS011;7664;52.008;4.748;2023-07-13T03:03:37;2.85;;;1.17;;
15126;SDS011;7664;52.008;4.748;2023-07-13T03:06:06;6.03;;;1.30;;
15126;SDS011;7664;52.008;4.748;2023-07-13T03:08:45;5.72;;;1.40;;
15126;SDS011;7664;52.008;4.748;2023-07-13T03:11:16;4.55;;;1.40;;
15126;SDS011;7664;52.008;4.748;2023-07-13T03:14:05;4.97;;;1.13;;
15126;SDS011;7664;52.008;4.748;2023-07-13T03:16:38;5.05;;;1.50;;
15126;SDS011;7664;52.008;4.748;2023-07-13T03:19:06;4.45;;;1.42;;
15126;SDS011;7664;52.008;4.748;2023-07-13T03:21:35;4.75;;;1.27;;
15126;SDS011;7664;52.008;4.748;2023-07-13T03:24:04;6.70;;;1.55;;
15126;SDS011;7664;52.008;4.748;2023-07-13T03:26:33;8.63;;;1.67;;
15126;SDS011;7664;52.008;4.748;2023-07-13T03:29:02;4.35;;;1.80;;
15126;SDS011;7664;52.008;4.748;2023-07-13T03:31:33;5.93;;;1.60;;
15126;SDS011;7664;52.008;4.748;2023-07-13T03:34:05;6.20;;;1.65;;
15126;SDS011;7664;52.008;4.748;2023-07-13T03:36:37;6.00;;;2.08;;
15126;SDS011;7664;52.008;4.748;2023-07-13T03:39:09;7.95;;;2.10;;
15126;SDS011;7664;52.008;4.748;2023-07-13T03:41:45;5.18;;;1.38;;
15126;SDS011;7664;52.008;4.748;2023-07-13T03:44:15;7.22;;;2.10;;
15126;SDS011;7664;52.008;4.748;2023-07-13T03:46:47;5.43;;;1.92;;
15126;SDS011;7664;52.008;4.748;2023-07-13T03:49:17;7.55;;;2.50;;
15126;SDS011;7664;52.008;4.748;2023-07-13T03:51:46;9.40;;;2.15;;
15126;SDS011;7664;52.008;4.748;2023-07-13T03:54:19;3.42;;;1.60;;
15126;SDS011;7664;52.008;4.748;2023-07-13T03:56:47;6.95;;;2.40;;
15126;SDS011;7664;52.008;4.748;2023-07-13T03:59:17;7.22;;;2.40;;
15126;SDS011;7664;52.008;4.748;2023-07-13T04:01:46;7.57;;;2.33;;
15126;SDS011;7664;52.008;4.748;2023-07-13T04:04:14;7.00;;;2.13;;
15126;SDS011;7664;52.008;4.748;2023-07-13T04:06:44;8.50;;;2.25;;
15126;SDS011;7664;52.008;4.748;2023-07-13T04:09:13;7.80;;;2.30;;
15126;SDS011;7664;52.008;4.748;2023-07-13T04:11:41;7.68;;;2.65;;
15126;SDS011;7664;52.008;4.748;2023-07-13T04:14:10;8.50;;;2.53;;
15126;SDS011;7664;52.008;4.748;2023-07-13T04:16:38;6.20;;;2.65;;
15126;SDS011;7664;52.008;4.748;2023-07-13T04:19:07;7.07;;;2.30;;
15126;SDS011;7664;52.008;4.748;2023-07-13T04:21:36;7.13;;;2.30;;
15126;SDS011;7664;52.008;4.748;2023-07-13T04:24:07;7.20;;;2.58;;
15126;SDS011;7664;52.008;4.748;2023-07-13T04:26:35;7.47;;;2.17;;
15126;SDS011;7664;52.008;4.748;2023-07-13T04:29:05;4.60;;;1.90;;
15126;SDS011;7664;52.008;4.748;2023-07-13T04:31:33;6.10;;;2.70;;
15126;SDS011;7664;52.008;4.748;2023-07-13T04:34:02;6.70;;;2.58;;
15126;SDS011;7664;52.008;4.748;2023-07-13T04:36:31;7.53;;;2.28;;
15126;SDS011;7664;52.008;4.748;2023-07-13T04:38:59;10.55;;;2.92;;
15126;SDS011;7664;52.008;4.748;2023-07-13T04:41:29;6.60;;;2.33;;
15126;SDS011;7664;52.008;4.748;2023-07-13T04:43:57;8.38;;;2.30;;
15126;SDS011;7664;52.008;4.748;2023-07-13T04:46:26;10.65;;;2.75;;
15126;SDS011;7664;52.008;4.748;2023-07-13T04:48:54;6.00;;;1.90;;
15126;SDS011;7664;52.008;4.748;2023-07-13T04:51:24;8.35;;;2.33;;
15126;SDS011;7664;52.008;4.748;2023-07-13T04:53:52;7.20;;;2.10;;
15126;SDS011;7664;52.008;4.748;2023-07-13T04:56:26;7.57;;;2.60;;
15126;SDS011;7664;52.008;4.748;2023-07-13T04:58:56;6.85;;;2.65;;
15126;SDS011;7664;52.008;4.748;2023-07-13T05:01:25;10.73;;;2.38;;
15126;SDS011;7664;52.008;4.748;2023-07-13T05:03:53;10.45;;;2.25;;
15126;SDS011;7664;52.008;4.748;2023-07-13T05:06:25;8.57;;;2.65;;
15126;SDS011;7664;52.008;4.748;2023-07-13T05:08:53;7.88;;;2.78;;
15126;SDS011;7664;52.008;4.748;2023-07-13T05:11:22;10.18;;;3.22;;
15126;SDS011;7664;52.008;4.748;2023-07-13T05:13:50;9.40;;;2.30;;
15126;SDS011;7664;52.008;4.748;2023-07-13T05:16:20;9.57;;;2.88;;
15126;SDS011;7664;52.008;4.748;2023-07-13T05:18:48;8.75;;;2.88;;
15126;SDS011;7664;52.008;4.748;2023-07-13T05:21:17;10.77;;;2.55;;
15126;SDS011;7664;52.008;4.748;2023-07-13T05:23:45;12.85;;;3.25;;
15126;SDS011;7664;52.008;4.748;2023-07-13T05:26:14;7.32;;;2.58;;
15126;SDS011;7664;52.008;4.748;2023-07-13T05:28:43;7.32;;;2.50;;
15126;SDS011;7664;52.008;4.748;2023-07-13T05:31:12;6.38;;;2.22;;
15126;SDS011;7664;52.008;4.748;2023-07-13T05:33:43;10.70;;;2.88;;
15126;SDS011;7664;52.008;4.748;2023-07-13T05:36:11;9.95;;;2.63;;
15126;SDS011;7664;52.008;4.748;2023-07-13T05:38:43;9.07;;;2.70;;
15126;SDS011;7664;52.008;4.748;2023-07-13T05:41:11;12.95;;;3.20;;
15126;SDS011;7664;52.008;4.748;2023-07-13T05:43:40;8.88;;;2.38;;
15126;SDS011;7664;52.008;4.748;2023-07-13T05:46:08;7.90;;;2.35;;
15126;SDS011;7664;52.008;4.748;2023-07-13T05:48:36;5.88;;;3.00;;
15126;SDS011;7664;52.008;4.748;2023-07-13T05:51:06;6.75;;;2.28;;
15126;SDS011;7664;52.008;4.748;2023-07-13T05:53:37;6.03;;;2.17;;
15126;SDS011;7664;52.008;4.748;2023-07-13T05:56:05;7.40;;;2.80;;
15126;SDS011;7664;52.008;4.748;2023-07-13T05:58:34;10.75;;;2.58;;
15126;SDS011;7664;52.008;4.748;2023-07-13T06:01:03;9.38;;;2.63;;
15126;SDS011;7664;52.008;4.748;2023-07-13T06:03:32;7.90;;;2.70;;
15126;SDS011;7664;52.008;4.748;2023-07-13T06:06:01;8.43;;;2.58;;
15126;SDS011;7664;52.008;4.748;2023-07-13T06:08:33;11.40;;;2.42;;
15126;SDS011;7664;52.008;4.748;2023-07-13T06:11:03;9.30;;;3.08;;
15126;SDS011;7664;52.008;4.748;2023-07-13T06:13:31;11.13;;;2.55;;
15126;SDS011;7664;52.008;4.748;2023-07-13T06:16:00;4.57;;;2.28;;
15126;SDS011;7664;52.008;4.748;2023-07-13T06:18:31;9.45;;;2.13;;
15126;SDS011;7664;52.008;4.748;2023-07-13T06:20:59;10.35;;;2.63;;
15126;SDS011;7664;52.008;4.748;2023-07-13T06:23:28;5.68;;;2.20;;
15126;SDS011;7664;52.008;4.748;2023-07-13T06:25:58;4.38;;;1.95;;
15126;SDS011;7664;52.008;4.748;2023-07-13T06:28:26;6.25;;;1.67;;
15126;SDS011;7664;52.008;4.748;2023-07-13T06:30:55;5.75;;;1.70;;
15126;SDS011;7664;52.008;4.748;2023-07-13T06:33:24;6.15;;;1.83;;
15126;SDS011;7664;52.008;4.748;2023-07-13T06:35:52;4.57;;;1.35;;
15126;SDS011;7664;52.008;4.748;2023-07-13T06:38:21;3.50;;;1.67;;
15126;SDS011;7664;52.008;4.748;2023-07-13T06:40:49;6.72;;;2.50;;
15126;SDS011;7664;52.008;4.748;2023-07-13T06:43:19;3.72;;;1.60;;
15126;SDS011;7664;52.008;4.748;2023-07-13T06:45:48;5.10;;;2.13;;
15126;SDS011;7664;52.008;4.748;2023-07-13T06:48:18;7.63;;;2.38;;
15126;SDS011;7664;52.008;4.748;2023-07-13T06:50:47;2.15;;;1.35;;
15126;SDS011;7664;52.008;4.748;2023-07-13T06:53:16;4.40;;;1.73;;
15126;SDS011;7664;52.008;4.748;2023-07-13T06:55:45;4.18;;;1.65;;
15126;SDS011;7664;52.008;4.748;2023-07-13T06:58:14;3.83;;;1.40;;
15126;SDS011;7664;52.008;4.748;2023-07-13T07:00:44;4.20;;;1.40;;
15126;SDS011;7664;52.008;4.748;2023-07-13T07:03:13;2.38;;;1.48;;
15126;SDS011;7664;52.008;4.748;2023-07-13T07:05:41;4.50;;;1.35;;
15126;SDS011;7664;52.008;4.748;2023-07-13T07:08:10;3.17;;;1.60;;
15126;SDS011;7664;52.008;4.748;2023-07-13T07:10:41;4.32;;;1.80;;
15126;SDS011;7664;52.008;4.748;2023-07-13T07:13:10;4.82;;;2.28;;
15126;SDS011;7664;52.008;4.748;2023-07-13T07:15:38;5.75;;;1.90;;
15126;SDS011;7664;52.008;4.748;2023-07-13T07:18:08;4.03;;;1.90;;
15126;SDS011;7664;52.008;4.748;2023-07-13T07:20:36;5.43;;;1.73;;
15126;SDS011;7664;52.008;4.748;2023-07-13T07:23:05;6.35;;;1.50;;
15126;SDS011;7664;52.008;4.748;2023-07-13T07:25:34;8.25;;;1.67;;
15126;SDS011;7664;52.008;4.748;2023-07-13T07:28:08;4.38;;;2.10;;
15126;SDS011;7664;52.008;4.748;2023-07-13T07:30:41;4.93;;;1.95;;
15126;SDS011;7664;52.008;4.748;2023-07-13T07:33:14;7.38;;;1.75;;
15126;SDS011;7664;52.008;4.748;2023-07-13T07:35:43;7.95;;;1.73;;
15126;SDS011;7664;52.008;4.748;2023-07-13T07:38:32;5.68;;;1.88;;
15126;SDS011;7664;52.008;4.748;2023-07-13T07:41:02;5.18;;;1.50;;
15126;SDS011;7664;52.008;4.748;2023-07-13T07:43:33;3.55;;;1.48;;
15126;SDS011;7664;52.008;4.748;2023-07-13T07:46:03;3.15;;;1.52;;
15126;SDS011;7664;52.008;4.748;2023-07-13T07:48:33;4.60;;;1.63;;
15126;SDS011;7664;52.008;4.748;2023-07-13T07:51:02;4.43;;;1.80;;
15126;SDS011;7664;52.008;4.748;2023-07-13T07:53:30;6.30;;;2.17;;
15126;SDS011;7664;52.008;4.748;2023-07-13T07:56:00;3.65;;;1.40;;
15126;SDS011;7664;52.008;4.748;2023-07-13T07:58:49;1.58;;;1.05;;
15126;SDS011;7664;52.008;4.748;2023-07-13T08:01:20;1.40;;;0.80;;
15126;SDS011;7664;52.008;4.748;2023-07-13T08:03:53;1.27;;;0.85;;
15126;SDS011;7664;52.008;4.748;2023-07-13T08:06:25;1.38;;;0.98;;
15126;SDS011;7664;52.008;4.748;2023-07-13T08:09:11;2.35;;;1.05;;
15126;SDS011;7664;52.008;4.748;2023-07-13T08:11:39;2.97;;;1.30;;
15126;SDS011;7664;52.008;4.748;2023-07-13T08:14:10;2.78;;;1.75;;
15126;SDS011;7664;52.008;4.748;2023-07-13T08:16:39;2.05;;;1.25;;
15126;SDS011;7664;52.008;4.748;2023-07-13T08:19:09;3.80;;;1.52;;
15126;SDS011;7664;52.008;4.748;2023-07-13T08:21:38;3.95;;;1.70;;
15126;SDS011;7664;52.008;4.748;2023-07-13T08:24:06;3.67;;;1.20;;
15126;SDS011;7664;52.008;4.748;2023-07-13T08:26:35;4.18;;;1.48;;
15126;SDS011;7664;52.008;4.748;2023-07-13T08:29:03;2.95;;;1.65;;
15126;SDS011;7664;52.008;4.748;2023-07-13T08:31:32;5.93;;;1.70;;
15126;SDS011;7664;52.008;4.748;2023-07-13T08:34:01;2.00;;;1.20;;
15126;SDS011;7664;52.008;4.748;2023-07-13T08:36:31;2.17;;;1.73;;
15126;SDS011;7664;52.008;4.748;2023-07-13T08:38:59;3.20;;;1.40;;
15126;SDS011;7664;52.008;4.748;2023-07-13T08:41:28;6.70;;;1.83;;
15126;SDS011;7664;52.008;4.748;2023-07-13T08:43:57;2.80;;;1.45;;
15126;SDS011;7664;52.008;4.748;2023-07-13T08:46:28;2.17;;;1.40;;
15126;SDS011;7664;52.008;4.748;2023-07-13T08:48:59;3.35;;;1.40;;
15126;SDS011;7664;52.008;4.748;2023-07-13T08:51:33;6.50;;;1.38;;
15126;SDS011;7664;52.008;4.748;2023-07-13T08:54:08;3.70;;;1.30;;
15126;SDS011;7664;52.008;4.748;2023-07-13T08:56:39;6.35;;;1.65;;
15126;SDS011;7664;52.008;4.748;2023-07-13T08:59:11;4.65;;;1.77;;
15126;SDS011;7664;52.008;4.748;2023-07-13T09:01:45;2.30;;;1.50;;
15126;SDS011;7664;52.008;4.748;2023-07-13T09:04:17;3.60;;;2.00;;
15126;SDS011;7664;52.008;4.748;2023-07-13T09:06:55;3.33;;;1.63;;
15126;SDS011;7664;52.008;4.748;2023-07-13T09:09:28;4.30;;;1.70;;
15126;SDS011;7664;52.008;4.748;2023-07-13T09:12:03;6.38;;;2.47;;
15126;SDS011;7664;52.008;4.748;2023-07-13T09:14:38;5.95;;;1.83;;
15126;SDS011;7664;52.008;4.748;2023-07-13T09:17:11;5.63;;;2.50;;
15126;SDS011;7664;52.008;4.748;2023-07-13T09:19:41;4.28;;;2.03;;
15126;SDS011;7664;52.008;4.748;2023-07-13T09:22:13;4.85;;;1.95;;
15126;SDS011;7664;52.008;4.748;2023-07-13T09:24:46;2.50;;;1.75;;
15126;SDS011;7664;52.008;4.748;2023-07-13T09:27:17;3.28;;;1.80;;
15126;SDS011;7664;52.008;4.748;2023-07-13T09:29:48;2.78;;;2.03;;
15126;SDS011;7664;52.008;4.748;2023-07-13T09:32:19;6.70;;;2.00;;
15126;SDS011;7664;52.008;4.748;2023-07-13T09:34:51;3.75;;;1.70;;
15126;SDS011;7664;52.008;4.748;2023-07-13T09:37:24;1.65;;;1.33;;
15126;SDS011;7664;52.008;4.748;2023-07-13T09:39:56;1.63;;;0.98;;
15126;SDS011;7664;52.008;4.748;2023-07-13T09:42:26;1.85;;;1.50;;
15126;SDS011;7664;52.008;4.748;2023-07-13T09:44:55;2.90;;;1.42;;
15126;SDS011;7664;52.008;4.748;2023-07-13T09:47:25;4.38;;;2.00;;
15126;SDS011;7664;52.008;4.748;2023-07-13T09:49:54;2.65;;;1.45;;
15126;SDS011;7664;52.008;4.748;2023-07-13T09:52:39;6.75;;;2.38;;
15126;SDS011;7664;52.008;4.748;2023-07-13T09:55:22;1.88;;;1.48;;
15126;SDS011;7664;52.008;4.748;2023-07-13T09:57:51;2.60;;;1.40;;
15126;SDS011;7664;52.008;4.748;2023-07-13T10:00:21;2.50;;;1.50;;
15126;SDS011;7664;52.008;4.748;2023-07-13T10:02:58;5.45;;;1.80;;
15126;SDS011;7664;52.008;4.748;2023-07-13T10:05:27;2.83;;;1.80;;
15126;SDS011;7664;52.008;4.748;2023-07-13T10:07:58;1.95;;;1.52;;
15126;SDS011;7664;52.008;4.748;2023-07-13T10:10:26;4.65;;;1.67;;
15126;SDS011;7664;52.008;4.748;2023-07-13T10:12:54;4.07;;;1.90;;
15126;SDS011;7664;52.008;4.748;2023-07-13T10:15:23;4.07;;;1.60;;
15126;SDS011;7664;52.008;4.748;2023-07-13T10:17:53;3.20;;;1.70;;
15126;SDS011;7664;52.008;4.748;2023-07-13T10:20:24;4.00;;;1.73;;
15126;SDS011;7664;52.008;4.748;2023-07-13T10:22:55;4.82;;;1.80;;
15126;SDS011;7664;52.008;4.748;2023-07-13T10:25:29;4.50;;;1.70;;
15126;SDS011;7664;52.008;4.748;2023-07-13T10:27:58;3.20;;;1.65;;
15126;SDS011;7664;52.008;4.748;2023-07-13T10:30:32;2.90;;;1.73;;
15126;SDS011;7664;52.008;4.748;2023-07-13T10:33:03;5.15;;;1.92;;
15126;SDS011;7664;52.008;4.748;2023-07-13T10:35:37;3.70;;;1.27;;
15126;SDS011;7664;52.008;4.748;2023-07-13T10:38:07;4.60;;;2.20;;
15126;SDS011;7664;52.008;4.748;2023-07-13T10:40:42;2.55;;;1.77;;
15126;SDS011;7664;52.008;4.748;2023-07-13T10:43:14;2.40;;;1.80;;
15126;SDS011;7664;52.008;4.748;2023-07-13T10:45:45;2.85;;;1.75;;
15126;SDS011;7664;52.008;4.748;2023-07-13T10:48:16;3.85;;;1.85;;
15126;SDS011;7664;52.008;4.748;2023-07-13T10:50:46;4.32;;;1.67;;
15126;SDS011;7664;52.008;4.748;2023-07-13T10:53:18;4.28;;;2.20;;
15126;SDS011;7664;52.008;4.748;2023-07-13T10:55:58;3.78;;;1.75;;
15126;SDS011;7664;52.008;4.748;2023-07-13T10:58:29;4.00;;;1.90;;
15126;SDS011;7664;52.008;4.748;2023-07-13T11:01:11;7.22;;;2.20;;
15126;SDS011;7664;52.008;4.748;2023-07-13T11:03:47;6.97;;;2.08;;
15126;SDS011;7664;52.008;4.748;2023-07-13T11:06:28;5.45;;;1.83;;
15126;SDS011;7664;52.008;4.748;2023-07-13T11:09:07;5.55;;;1.90;;
15126;SDS011;7664;52.008;4.748;2023-07-13T11:11:50;2.70;;;1.75;;
15126;SDS011;7664;52.008;4.748;2023-07-13T11:14:25;3.30;;;1.58;;
15126;SDS011;7664;52.008;4.748;2023-07-13T11:16:57;3.95;;;1.52;;
15126;SDS011;7664;52.008;4.748;2023-07-13T11:19:28;4.78;;;1.77;;
15126;SDS011;7664;52.008;4.748;2023-07-13T11:22:12;2.28;;;1.40;;
15126;SDS011;7664;52.008;4.748;2023-07-13T11:24:48;2.85;;;1.95;;
15126;SDS011;7664;52.008;4.748;2023-07-13T11:27:31;3.15;;;1.80;;
15126;SDS011;7664;52.008;4.748;2023-07-13T11:30:18;2.03;;;1.65;;
15126;SDS011;7664;52.008;4.748;2023-07-13T11:35:41;4.00;;;1.85;;
15126;SDS011;7664;52.008;4.748;2023-07-13T11:38:12;2.80;;;1.80;;
15126;SDS011;7664;52.008;4.748;2023-07-13T11:40:43;4.15;;;1.83;;
15126;SDS011;7664;52.008;4.748;2023-07-13T11:43:23;2.55;;;1.40;;
15126;SDS011;7664;52.008;4.748;2023-07-13T11:45:54;1.92;;;1.30;;
15126;SDS011;7664;52.008;4.748;2023-07-13T11:48:25;3.45;;;1.50;;
15126;SDS011;7664;52.008;4.748;2023-07-13T11:50:56;2.70;;;1.58;;
15126;SDS011;7664;52.008;4.748;2023-07-13T11:53:26;2.13;;;1.63;;
15126;SDS011;7664;52.008;4.748;2023-07-13T11:55:56;2.42;;;1.35;;
15126;SDS011;7664;52.008;4.748;2023-07-13T11:58:26;3.38;;;1.60;;
15126;SDS011;7664;52.008;4.748;2023-07-13T12:00:57;3.17;;;1.60;;
15126;SDS011;7664;52.008;4.748;2023-07-13T12:03:28;4.90;;;1.98;;
15126;SDS011;7664;52.008;4.748;2023-07-13T12:05:58;3.28;;;1.80;;
15126;SDS011;7664;52.008;4.748;2023-07-13T12:08:28;2.67;;;1.58;;
15126;SDS011;7664;52.008;4.748;2023-07-13T12:10:58;2.25;;;1.60;;
15126;SDS011;7664;52.008;4.748;2023-07-13T12:13:28;4.22;;;1.30;;
15126;SDS011;7664;52.008;4.748;2023-07-13T12:15:57;2.47;;;1.63;;
15126;SDS011;7664;52.008;4.748;2023-07-13T12:18:28;5.63;;;1.52;;
15126;SDS011;7664;52.008;4.748;2023-07-13T12:20:58;3.20;;;1.75;;
15126;SDS011;7664;52.008;4.748;2023-07-13T12:23:28;3.42;;;1.42;;
15126;SDS011;7664;52.008;4.748;2023-07-13T12:25:57;3.38;;;1.40;;
15126;SDS011;7664;52.008;4.748;2023-07-13T12:28:33;3.63;;;1.55;;
15126;SDS011;7664;52.008;4.748;2023-07-13T12:31:05;2.03;;;1.40;;
15126;SDS011;7664;52.008;4.748;2023-07-13T12:33:34;2.20;;;1.70;;
15126;SDS011;7664;52.008;4.748;2023-07-13T12:36:05;3.53;;;1.60;;
15126;SDS011;7664;52.008;4.748;2023-07-13T12:38:35;1.95;;;1.10;;
15126;SDS011;7664;52.008;4.748;2023-07-13T12:41:07;4.47;;;1.42;;
15126;SDS011;7664;52.008;4.748;2023-07-13T12:43:38;2.53;;;1.42;;
15126;SDS011;7664;52.008;4.748;2023-07-13T12:46:14;1.73;;;1.42;;
15126;SDS011;7664;52.008;4.748;2023-07-13T12:48:47;3.92;;;1.42;;
15126;SDS011;7664;52.008;4.748;2023-07-13T12:51:33;2.00;;;1.30;;
15126;SDS011;7664;52.008;4.748;2023-07-13T12:54:06;4.03;;;1.65;;
15126;SDS011;7664;52.008;4.748;2023-07-13T12:56:35;2.38;;;1.48;;
15126;SDS011;7664;52.008;4.748;2023-07-13T12:59:04;2.53;;;1.52;;
15126;SDS011;7664;52.008;4.748;2023-07-13T13:01:35;5.25;;;1.80;;
15126;SDS011;7664;52.008;4.748;2023-07-13T13:04:04;2.50;;;1.33;;
15126;SDS011;7664;52.008;4.748;2023-07-13T13:06:35;4.13;;;1.50;;
15126;SDS011;7664;52.008;4.748;2023-07-13T13:09:05;3.33;;;1.27;;
15126;SDS011;7664;52.008;4.748;2023-07-13T13:11:37;2.63;;;1.50;;
15126;SDS011;7664;52.008;4.748;2023-07-13T13:14:08;2.90;;;1.45;;
15126;SDS011;7664;52.008;4.748;2023-07-13T13:16:39;1.80;;;1.20;;
15126;SDS011;7664;52.008;4.748;2023-07-13T13:19:12;2.25;;;1.00;;
15126;SDS011;7664;52.008;4.748;2023-07-13T13:21:42;3.20;;;1.38;;
15126;SDS011;7664;52.008;4.748;2023-07-13T13:24:11;2.13;;;1.20;;
15126;SDS011;7664;52.008;4.748;2023-07-13T13:26:40;3.72;;;1.65;;
15126;SDS011;7664;52.008;4.748;2023-07-13T13:29:12;3.63;;;1.13;;
15126;SDS011;7664;52.008;4.748;2023-07-13T13:31:41;2.10;;;1.17;;
15126;SDS011;7664;52.008;4.748;2023-07-13T13:34:10;2.80;;;1.42;;
15126;SDS011;7664;52.008;4.748;2023-07-13T13:36:40;2.15;;;1.20;;
15126;SDS011;7664;52.008;4.748;2023-07-13T13:39:19;2.55;;;1.52;;
15126;SDS011;7664;52.008;4.748;2023-07-13T13:41:49;3.05;;;1.38;;
15126;SDS011;7664;52.008;4.748;2023-07-13T13:44:20;2.95;;;1.20;;
15126;SDS011;7664;52.008;4.748;2023-07-13T13:46:49;3.03;;;1.30;;
15126;SDS011;7664;52.008;4.748;2023-07-13T13:49:19;2.65;;;1.50;;
15126;SDS011;7664;52.008;4.748;2023-07-13T13:51:49;3.42;;;1.20;;
15126;SDS011;7664;52.008;4.748;2023-07-13T13:54:18;4.05;;;1.48;;
15126;SDS011;7664;52.008;4.748;2023-07-13T13:56:47;2.50;;;1.40;;
15126;SDS011;7664;52.008;4.748;2023-07-13T13:59:15;2.40;;;1.58;;
15126;SDS011;7664;52.008;4.748;2023-07-13T14:01:46;2.55;;;1.20;;
15126;SDS011;7664;52.008;4.748;2023-07-13T14:04:17;3.42;;;1.15;;
15126;SDS011;7664;52.008;4.748;2023-07-13T14:06:46;1.83;;;0.90;;
15126;SDS011;7664;52.008;4.748;2023-07-13T14:09:17;2.67;;;1.20;;
15126;SDS011;7664;52.008;4.748;2023-07-13T14:11:46;0.90;;;0.88;;
15126;SDS011;7664;52.008;4.748;2023-07-13T14:14:17;2.17;;;0.88;;
15126;SDS011;7664;52.008;4.748;2023-07-13T14:16:48;1.70;;;0.98;;
15126;SDS011;7664;52.008;4.748;2023-07-13T14:19:20;2.75;;;1.10;;
15126;SDS011;7664;52.008;4.748;2023-07-13T14:21:49;1.45;;;1.08;;
15126;SDS011;7664;52.008;4.748;2023-07-13T14:24:20;2.25;;;1.08;;
15126;SDS011;7664;52.008;4.748;2023-07-13T14:26:49;3.55;;;1.45;;
15126;SDS011;7664;52.008;4.748;2023-07-13T14:29:18;3.55;;;0.90;;
15126;SDS011;7664;52.008;4.748;2023-07-13T14:31:51;3.45;;;1.33;;
15126;SDS011;7664;52.008;4.748;2023-07-13T14:34:20;3.22;;;1.20;;
15126;SDS011;7664;52.008;4.748;2023-07-13T14:36:49;2.35;;;1.20;;
15126;SDS011;7664;52.008;4.748;2023-07-13T14:39:18;3.55;;;1.23;;
15126;SDS011;7664;52.008;4.748;2023-07-13T14:41:49;2.03;;;1.00;;
15126;SDS011;7664;52.008;4.748;2023-07-13T14:44:20;1.67;;;0.90;;
15126;SDS011;7664;52.008;4.748;2023-07-13T14:46:49;2.88;;;1.15;;
15126;SDS011;7664;52.008;4.748;2023-07-13T14:49:23;3.58;;;1.10;;
15126;SDS011;7664;52.008;4.748;2023-07-13T14:51:53;1.95;;;1.08;;
15126;SDS011;7664;52.008;4.748;2023-07-13T14:54:23;2.05;;;1.00;;
15126;SDS011;7664;52.008;4.748;2023-07-13T14:56:52;2.13;;;1.00;;
15126;SDS011;7664;52.008;4.748;2023-07-13T14:59:21;1.73;;;1.23;;
15126;SDS011;7664;52.008;4.748;2023-07-13T15:01:50;2.72;;;0.75;;
15126;SDS011;7664;52.008;4.748;2023-07-13T15:04:19;1.88;;;1.08;;
15126;SDS011;7664;52.008;4.748;2023-07-13T15:06:53;2.38;;;0.85;;
15126;SDS011;7664;52.008;4.748;2023-07-13T15:09:23;1.00;;;0.75;;
15126;SDS011;7664;52.008;4.748;2023-07-13T15:11:53;2.20;;;0.95;;
15126;SDS011;7664;52.008;4.748;2023-07-13T15:14:22;1.70;;;1.00;;
15126;SDS011;7664;52.008;4.748;2023-07-13T15:16:52;2.50;;;1.15;;
15126;SDS011;7664;52.008;4.748;2023-07-13T15:19:21;1.42;;;0.73;;
15126;SDS011;7664;52.008;4.748;2023-07-13T15:21:52;1.80;;;1.08;;
15126;SDS011;7664;52.008;4.748;2023-07-13T15:24:22;1.75;;;1.30;;